Pagrindinis puslapis
METAR-TAF:

METAR-TAF

Oro uostai :

Ki Vestas, Florida, Jungtinės Amerikos Valstijos

platuma: 24-33-13N, ilguma: 081-45-13W, Aukštis: 1 m

Dabartinis oras

Ataskaita buvo paskelbta 39 minutes, ne 16:53 UTC
Vėjas 6 kt iš Pietų/Pietvakarių
Temperatūra 29°C
Drėgmė 74%
Slėgis 1015 hPa
Matomumas: 16.1 km
Mažai debesys ne aukštis 2300 ft

METAR: KEYW 171653Z 21006KT 10SM FEW023 29/24 A2996 RMK AO2 SLP144 T02940244

Laikas: 13:32 (17:32 UTC)

Prognozė

Ataskaita buvo paskelbta 3 valandos ir 17 minutes, ne 14:15 UTC
Prognozė galioja nuo 17 metu 14 UTC su 18 metu 12 UTC
Vėjas 6 kt iš Pietvakarių
Matomumas: 10 km
Išsisklaidę debesys ne aukštis 2500 ft
Nuo 17 metu 1800 UTC
Vėjas 5 kt iš Vakarų
Matomumas: 10 km
Mažai debesys ne aukštis 2500 ft

TAF: KEYW 171415Z 1714/1812 22006KT P6SM SCT025 FM171800 27005KT P6SM FEW025

Orai ataskaitas ir orų prognozės (METAR, TAF).

turimą stotys yra geltonos ir raudonos taškus žemėlapyje.

Perkelti pele per norėdami pamatyti stoties vardą.

Tada spustelėkite, norėdami matyti oro stebėjimo ir prognozės.

Norėdami pakeisti žemėlapį: spustelėkite ant žalios mygtukų su juodo kryžiaus žemyn,; žalią mygtuką su brūkšneliu, jei norite nutolinti; arba žalių rodyklių gretimoms žemėlapius.


METAR-TAF: